createdAt,value
2022-10-20T00:01:25.652Z,100689.59
2022-10-20T00:03:57.676Z,100692.28
2022-10-20T00:06:31.343Z,100688.56
2022-10-20T00:09:01.358Z,100681.16
2022-10-20T00:11:30.370Z,100685.22
2022-10-20T00:13:59.827Z,100674.13
2022-10-20T00:16:30.466Z,100675.31
2022-10-20T00:18:58.780Z,100665.75
2022-10-20T00:21:28.441Z,100667.41
2022-10-20T00:23:59.134Z,100663.81
2022-10-20T00:26:28.714Z,100661.13
2022-10-20T00:28:58.194Z,100660.50
2022-10-20T00:31:26.909Z,100657.19
2022-10-20T00:33:54.606Z,100651.94
2022-10-20T00:36:23.489Z,100653.22
2022-10-20T00:38:52.212Z,100652.94
2022-10-20T00:41:21.756Z,100651.09
2022-10-20T00:43:55.203Z,100654.56
2022-10-20T00:46:43.138Z,100651.63
2022-10-20T00:49:23.644Z,100642.50
2022-10-20T00:51:53.458Z,100648.75
2022-10-20T00:54:25.687Z,100643.69
2022-10-20T00:56:55.588Z,100634.00
2022-10-20T00:59:28.312Z,100635.94
2022-10-20T01:01:58.256Z,100640.34
2022-10-20T01:04:29.549Z,100635.56
2022-10-20T01:06:58.127Z,100633.28
2022-10-20T01:09:25.784Z,100631.56
2022-10-20T01:12:38.754Z,100629.66
2022-10-20T01:15:20.538Z,100633.25
2022-10-20T01:18:13.523Z,100637.34
2022-10-20T01:21:06.340Z,100636.72
2022-10-20T01:24:01.561Z,100638.41
2022-10-20T01:26:57.402Z,100647.13
2022-10-20T01:29:56.513Z,100640.56
2022-10-20T01:33:15.047Z,100637.72
2022-10-20T01:36:11.826Z,100633.34
2022-10-20T01:39:02.759Z,100643.09
2022-10-20T01:41:43.929Z,100644.78
2022-10-20T01:44:15.165Z,100644.63
2022-10-20T01:46:44.670Z,100627.66
2022-10-20T01:49:14.731Z,100646.72
2022-10-20T01:54:26.089Z,100647.47
2022-10-20T01:57:18.880Z,100652.19
2022-10-20T02:00:04.853Z,100640.09
2022-10-20T02:02:35.644Z,100632.09
2022-10-20T02:05:06.374Z,100644.47
2022-10-20T02:07:35.204Z,100646.16
2022-10-20T02:10:17.525Z,100636.44
2022-10-20T02:12:50.905Z,100631.16
2022-10-20T02:15:24.273Z,100627.78
2022-10-20T02:18:01.143Z,100620.78
2022-10-20T02:20:31.228Z,100614.09
2022-10-20T02:23:03.107Z,100605.50
2022-10-20T02:25:33.457Z,100613.13
2022-10-20T02:28:04.621Z,100622.19
2022-10-20T02:30:33.772Z,100609.09
2022-10-20T02:33:01.531Z,100605.91
2022-10-20T02:35:33.819Z,100618.53
2022-10-20T02:38:03.661Z,100624.78
2022-10-20T02:40:31.869Z,100633.19
2022-10-20T02:42:59.512Z,100648.94
2022-10-20T02:45:27.017Z,100647.25
2022-10-20T02:47:54.519Z,100641.13
2022-10-20T02:50:22.046Z,100634.25
2022-10-20T02:52:51.708Z,100631.94
2022-10-20T02:55:19.467Z,100628.94
2022-10-20T02:57:47.209Z,100630.00
2022-10-20T03:00:15.496Z,100636.25
2022-10-20T03:02:43.410Z,100625.19
2022-10-20T03:05:10.994Z,100624.47
2022-10-20T03:07:39.200Z,100616.03
2022-10-20T03:10:09.265Z,100614.00
2022-10-20T03:12:36.975Z,100628.44
2022-10-20T03:15:05.468Z,100624.94
2022-10-20T03:17:33.913Z,100613.88
2022-10-20T03:20:01.554Z,100613.66
2022-10-20T03:25:01.846Z,100604.25
2022-10-20T03:27:30.134Z,100600.88
2022-10-20T03:29:57.803Z,100605.94
2022-10-20T03:32:25.487Z,100594.84
2022-10-20T03:34:55.401Z,100598.38
2022-10-20T03:37:23.079Z,100588.13
2022-10-20T03:39:50.825Z,100589.50
2022-10-20T03:42:18.332Z,100580.75
2022-10-20T03:44:46.115Z,100589.81
2022-10-20T03:47:14.416Z,100588.41
2022-10-20T03:49:43.003Z,100586.47
2022-10-20T03:52:10.494Z,100582.56
2022-10-20T03:54:40.984Z,100584.13
2022-10-20T03:57:08.558Z,100578.75
2022-10-20T03:59:36.146Z,100568.00
2022-10-20T04:02:04.383Z,100566.72
2022-10-20T04:04:32.147Z,100564.31
2022-10-20T04:07:17.046Z,100561.28
2022-10-20T04:09:44.633Z,100553.09
2022-10-20T04:12:12.803Z,100548.28
2022-10-20T04:14:41.470Z,100558.69
2022-10-20T04:17:12.805Z,100557.28
2022-10-20T04:19:40.331Z,100551.91
2022-10-20T04:22:11.109Z,100558.59
2022-10-20T04:24:39.563Z,100552.84
2022-10-20T04:27:08.874Z,100560.84
2022-10-20T04:29:37.759Z,100551.72
2022-10-20T04:32:05.573Z,100546.84
2022-10-20T04:34:35.196Z,100549.56
2022-10-20T04:37:02.745Z,100553.19
2022-10-20T04:39:30.528Z,100552.00
2022-10-20T04:41:58.572Z,100557.94
2022-10-20T04:44:26.245Z,100544.13
2022-10-20T04:46:56.812Z,100549.22
2022-10-20T04:53:17.391Z,100564.97
2022-10-20T04:55:54.358Z,100564.91
2022-10-20T04:58:22.098Z,100563.94
2022-10-20T05:00:51.008Z,100568.19
2022-10-20T05:03:22.166Z,100567.84
2022-10-20T05:05:50.704Z,100572.53
2022-10-20T05:08:18.449Z,100572.66
2022-10-20T05:10:46.100Z,100574.69
2022-10-20T05:13:15.528Z,100578.16
2022-10-20T05:15:43.316Z,100583.34
2022-10-20T05:18:14.442Z,100584.72
2022-10-20T05:21:07.231Z,100579.66
2022-10-20T05:23:29.642Z,100591.06
2022-10-20T05:25:57.288Z,100600.34
2022-10-20T05:28:24.899Z,100594.31
2022-10-20T05:30:53.847Z,100593.66
2022-10-20T05:33:23.130Z,100598.56
2022-10-20T05:35:51.076Z,100598.94
2022-10-20T05:38:18.957Z,100603.09
2022-10-20T05:40:46.573Z,100598.81
2022-10-20T05:43:17.205Z,100602.03
2022-10-20T05:45:45.218Z,100608.00
2022-10-20T05:48:12.873Z,100593.91
2022-10-20T05:50:40.635Z,100609.19
2022-10-20T05:53:08.414Z,100614.31
2022-10-20T05:55:36.475Z,100603.88
2022-10-20T05:58:05.096Z,100613.25
2022-10-20T06:00:41.574Z,100614.38
2022-10-20T06:03:09.735Z,100607.63
2022-10-20T06:05:37.861Z,100609.97
2022-10-20T06:08:05.661Z,100619.56
2022-10-20T06:10:36.534Z,100621.59
2022-10-20T06:13:04.646Z,100617.06
2022-10-20T06:15:35.341Z,100607.41
2022-10-20T06:18:03.503Z,100614.44
2022-10-20T06:20:31.273Z,100606.44
2022-10-20T06:22:58.948Z,100599.16
2022-10-20T06:25:27.102Z,100607.94
2022-10-20T06:27:54.942Z,100610.13
2022-10-20T06:30:22.654Z,100615.16
2022-10-20T06:32:55.047Z,100613.31
2022-10-20T06:35:22.869Z,100613.47
2022-10-20T06:37:50.450Z,100618.16
2022-10-20T06:40:18.139Z,100611.81
2022-10-20T06:42:45.804Z,100612.16
2022-10-20T06:45:16.912Z,100617.53
2022-10-20T06:47:45.361Z,100628.50
2022-10-20T06:50:13.175Z,100626.97
2022-10-20T06:52:40.676Z,100625.72
2022-10-20T06:55:08.864Z,100626.78
2022-10-20T06:57:36.701Z,100623.44
2022-10-20T07:00:06.089Z,100641.91
2022-10-20T07:02:33.730Z,100632.84
2022-10-20T07:05:01.391Z,100639.88
2022-10-20T07:07:29.365Z,100637.84
2022-10-20T07:09:56.894Z,100640.22
2022-10-20T07:12:25.435Z,100633.53
2022-10-20T07:14:53.153Z,100635.63
2022-10-20T07:17:20.732Z,100642.28
2022-10-20T07:19:48.758Z,100646.75
2022-10-20T07:22:19.897Z,100657.66
2022-10-20T07:24:47.800Z,100657.09
2022-10-20T07:27:15.606Z,100651.41
2022-10-20T07:29:43.756Z,100658.81
2022-10-20T07:32:13.365Z,100654.28
2022-10-20T07:34:41.233Z,100651.78
2022-10-20T07:37:08.796Z,100662.91
2022-10-20T07:39:36.940Z,100656.19
2022-10-20T07:42:04.718Z,100653.84
2022-10-20T07:44:34.137Z,100655.88
2022-10-20T07:47:01.876Z,100660.72
2022-10-20T07:49:45.661Z,100663.25
2022-10-20T07:52:13.439Z,100662.59
2022-10-20T07:54:41.274Z,100664.94
2022-10-20T07:57:09.262Z,100662.75
2022-10-20T07:59:36.933Z,100664.59
2022-10-20T08:02:04.697Z,100670.97
2022-10-20T08:04:34.067Z,100670.63
2022-10-20T08:07:02.222Z,100664.75
2022-10-20T08:09:30.007Z,100665.25
2022-10-20T08:11:59.098Z,100667.94
2022-10-20T08:14:35.478Z,100679.66
2022-10-20T08:17:05.048Z,100679.44
2022-10-20T08:22:20.133Z,100675.59
2022-10-20T08:24:47.954Z,100678.97
2022-10-20T08:27:15.600Z,100682.97
2022-10-20T08:29:50.711Z,100690.34
2022-10-20T08:32:27.749Z,100692.00
2022-10-20T08:34:55.185Z,100696.34
2022-10-20T08:37:25.919Z,100700.06
2022-10-20T08:39:54.546Z,100709.94
2022-10-20T08:42:23.034Z,100704.53
2022-10-20T08:44:51.101Z,100712.72
2022-10-20T08:47:33.765Z,100712.72
2022-10-20T08:50:06.775Z,100715.31
2022-10-20T08:52:47.654Z,100717.25
2022-10-20T08:55:24.994Z,100723.09
2022-10-20T08:57:53.180Z,100716.84
2022-10-20T09:00:23.341Z,100719.06
2022-10-20T09:02:51.806Z,100723.44
2022-10-20T09:05:27.252Z,100728.09
2022-10-20T09:07:57.566Z,100715.72
2022-10-20T09:10:31.719Z,100717.16
2022-10-20T09:13:00.639Z,100723.03
2022-10-20T09:15:29.856Z,100725.69
2022-10-20T09:18:04.227Z,100722.06
2022-10-20T09:20:59.192Z,100716.72
2022-10-20T09:23:45.339Z,100723.34
2022-10-20T09:26:25.008Z,100724.75
2022-10-20T09:29:13.881Z,100715.47
2022-10-20T09:31:43.288Z,100726.28
2022-10-20T09:34:29.026Z,100731.97
2022-10-20T09:37:08.719Z,100728.63
2022-10-20T09:39:59.635Z,100738.72
2022-10-20T09:42:28.028Z,100745.91
2022-10-20T09:45:20.019Z,100747.41
2022-10-20T09:47:52.893Z,100754.75
2022-10-20T09:50:39.532Z,100751.31
2022-10-20T09:53:18.881Z,100742.94
2022-10-20T09:55:51.836Z,100756.34
2022-10-20T09:58:30.023Z,100749.34
2022-10-20T10:01:05.965Z,100757.06
2022-10-20T10:03:45.700Z,100753.91
2022-10-20T10:06:38.155Z,100762.41
2022-10-20T10:09:34.718Z,100763.69
2022-10-20T10:12:12.062Z,100767.66
2022-10-20T10:14:54.542Z,100764.31
2022-10-20T10:17:50.247Z,100767.78
2022-10-20T10:20:17.982Z,100769.16
2022-10-20T10:22:46.317Z,100769.81
2022-10-20T10:25:22.577Z,100778.56
2022-10-20T10:28:00.758Z,100770.13
2022-10-20T10:30:32.650Z,100762.91
2022-10-20T10:33:01.966Z,100766.31
2022-10-20T10:35:44.082Z,100775.13
2022-10-20T10:38:14.623Z,100780.38
2022-10-20T10:41:11.179Z,100785.25
2022-10-20T10:44:03.758Z,100783.69
2022-10-20T10:49:31.284Z,100786.31
2022-10-20T10:52:02.317Z,100793.03
2022-10-20T10:54:43.968Z,100783.00
2022-10-20T10:57:31.387Z,100798.75
2022-10-20T11:00:13.197Z,100792.56
2022-10-20T11:03:20.097Z,100788.13
2022-10-20T11:05:56.221Z,100803.41
2022-10-20T11:08:55.552Z,100804.97
2022-10-20T11:11:54.533Z,100811.44
2022-10-20T11:14:35.300Z,100813.94
2022-10-20T11:17:34.857Z,100818.22
2022-10-20T11:20:21.536Z,100814.25
2022-10-20T11:23:27.712Z,100818.34
2022-10-20T11:26:08.830Z,100817.63
2022-10-20T11:28:46.240Z,100818.81
2022-10-20T11:31:23.323Z,100827.13
2022-10-20T11:33:58.149Z,100827.19
2022-10-20T11:36:32.966Z,100823.28
2022-10-20T11:39:00.852Z,100830.50
2022-10-20T11:41:38.902Z,100834.34
2022-10-20T11:44:28.955Z,100839.47
2022-10-20T11:47:07.997Z,100833.66
2022-10-20T11:49:40.134Z,100843.75
2022-10-20T11:52:22.810Z,100836.09
2022-10-20T11:55:00.141Z,100843.97
2022-10-20T11:57:56.457Z,100843.88
2022-10-20T12:00:42.012Z,100838.41
2022-10-20T12:03:15.788Z,100851.78
2022-10-20T12:06:12.683Z,100850.63
2022-10-20T12:09:12.682Z,100854.50
2022-10-20T12:12:15.689Z,100857.31
2022-10-20T12:14:50.029Z,100877.63
2022-10-20T12:17:33.768Z,100867.63
2022-10-20T12:20:22.517Z,100869.88
2022-10-20T12:22:59.195Z,100888.44
2022-10-20T12:25:26.980Z,100887.34
2022-10-20T12:28:22.960Z,100883.09
2022-10-20T12:31:02.163Z,100893.78
2022-10-20T12:33:42.423Z,100900.31
2022-10-20T12:36:26.506Z,100888.81
2022-10-20T12:39:13.683Z,100894.75
2022-10-20T12:42:04.401Z,100898.13
2022-10-20T12:44:43.132Z,100904.69
2022-10-20T12:47:24.429Z,100907.34
2022-10-20T12:49:57.171Z,100902.47
2022-10-20T12:52:31.359Z,100914.84
2022-10-20T12:55:06.260Z,100921.34
2022-10-20T12:57:43.800Z,100927.34
2022-10-20T13:00:30.206Z,100930.97
2022-10-20T13:03:00.478Z,100937.28
2022-10-20T13:05:47.517Z,100928.00
2022-10-20T13:08:21.732Z,100938.25
2022-10-20T13:10:54.064Z,100951.09
2022-10-20T13:13:22.593Z,100952.78
2022-10-20T13:15:54.963Z,100955.47
2022-10-20T13:18:29.106Z,100960.50
2022-10-20T13:21:15.895Z,100952.88
2022-10-20T13:23:55.291Z,100967.44
2022-10-20T13:26:26.131Z,100968.16
2022-10-20T13:28:56.899Z,100970.56
2022-10-20T13:31:24.951Z,100969.88
2022-10-20T13:34:14.057Z,100967.91
2022-10-20T13:37:03.824Z,100972.81
2022-10-20T13:39:44.756Z,100979.16
2022-10-20T13:42:44.814Z,100970.03
2022-10-20T13:45:27.450Z,100979.75
2022-10-20T13:47:58.730Z,100979.44
2022-10-20T13:50:48.264Z,100977.78
2022-10-20T13:53:39.150Z,100988.44
2022-10-20T13:56:18.296Z,100986.06
2022-10-20T13:59:05.523Z,100986.31
2022-10-20T14:01:36.551Z,100980.81
2022-10-20T14:04:23.878Z,100979.19
2022-10-20T14:06:51.426Z,100980.09
2022-10-20T14:09:25.606Z,100985.63
2022-10-20T14:11:56.011Z,100987.44
2022-10-20T14:14:29.817Z,100992.06
2022-10-20T14:17:22.060Z,100985.50
2022-10-20T14:19:50.438Z,100981.72
2022-10-20T14:22:24.239Z,100980.94
2022-10-20T14:24:55.216Z,101003.81
2022-10-20T14:27:31.598Z,100985.34
2022-10-20T14:30:03.158Z,100985.16
2022-10-20T14:32:40.606Z,100996.53
2022-10-20T14:35:21.974Z,100994.91
2022-10-20T14:37:57.848Z,101000.06
2022-10-20T14:40:33.762Z,100998.53
2022-10-20T14:43:19.368Z,101000.78
2022-10-20T14:46:00.242Z,101005.44
2022-10-20T14:48:38.455Z,101009.63
2022-10-20T14:51:30.149Z,101012.00
2022-10-20T14:57:31.099Z,101014.84
2022-10-20T15:00:23.195Z,101016.50
2022-10-20T15:02:56.789Z,101022.53
2022-10-20T15:06:00.791Z,101023.94
2022-10-20T15:08:31.384Z,101031.09
2022-10-20T15:11:02.680Z,101032.22
2022-10-20T15:13:34.861Z,101033.34
2022-10-20T15:16:04.754Z,101035.84
2022-10-20T15:18:37.816Z,101046.53
2022-10-20T15:21:08.466Z,101041.59
2022-10-20T15:23:36.221Z,101049.03
2022-10-20T15:26:14.157Z,101058.63
2022-10-20T15:28:47.550Z,101054.94
2022-10-20T15:31:27.158Z,101058.59
2022-10-20T15:33:57.848Z,101063.91
2022-10-20T15:36:33.467Z,101072.88
2022-10-20T15:39:03.042Z,101061.69
2022-10-20T15:41:33.736Z,101069.94
2022-10-20T15:44:12.137Z,101074.03
2022-10-20T15:46:47.276Z,101084.41
2022-10-20T15:49:15.594Z,101078.63
2022-10-20T15:51:46.269Z,101081.84
2022-10-20T15:54:18.821Z,101087.22
2022-10-20T15:56:46.825Z,101096.75
2022-10-20T15:59:15.470Z,101107.72
2022-10-20T16:01:43.601Z,101107.94
2022-10-20T16:04:28.927Z,101111.75
2022-10-20T16:06:59.000Z,101122.00
2022-10-20T16:09:27.976Z,101125.09
2022-10-20T16:11:56.461Z,101124.69
2022-10-20T16:14:24.454Z,101132.69
2022-10-20T16:16:58.449Z,101123.69
2022-10-20T16:19:26.206Z,101133.25
2022-10-20T16:21:53.955Z,101140.59
2022-10-20T16:24:21.723Z,101147.31
2022-10-20T16:26:49.586Z,101146.22
2022-10-20T16:29:18.531Z,101152.66
2022-10-20T16:31:48.606Z,101156.03
2022-10-20T16:34:17.561Z,101143.81
2022-10-20T16:36:45.329Z,101138.31
2022-10-20T16:39:19.170Z,101150.97
2022-10-20T16:41:47.508Z,101161.38
2022-10-20T16:44:15.601Z,101165.19
2022-10-20T16:46:44.169Z,101169.94
2022-10-20T16:49:14.717Z,101167.28
2022-10-20T16:51:42.859Z,101174.88
2022-10-20T16:54:12.343Z,101184.97
2022-10-20T16:56:40.450Z,101190.59
2022-10-20T16:59:09.312Z,101170.09
2022-10-20T17:01:37.409Z,101179.53
2022-10-20T17:04:05.784Z,101179.09
2022-10-20T17:06:34.121Z,101183.28
2022-10-20T17:09:03.939Z,101187.66
2022-10-20T17:11:33.533Z,101182.91
2022-10-20T17:14:03.575Z,101191.44
2022-10-20T17:16:33.957Z,101189.34
2022-10-20T17:19:02.700Z,101183.28
2022-10-20T17:21:32.050Z,101193.13
2022-10-20T17:24:01.065Z,101201.53
2022-10-20T17:26:30.814Z,101191.16
2022-10-20T17:29:00.717Z,101201.84
2022-10-20T17:31:29.656Z,101207.72
2022-10-20T17:33:58.485Z,101208.28
2022-10-20T17:36:30.368Z,101207.19
2022-10-20T17:39:06.110Z,101209.69
2022-10-20T17:41:34.358Z,101204.06
2022-10-20T17:44:04.905Z,101215.31
2022-10-20T17:46:34.222Z,101218.56
2022-10-20T17:49:06.490Z,101218.41
2022-10-20T17:51:44.348Z,101209.97
2022-10-20T17:54:13.887Z,101225.84
2022-10-20T17:56:43.933Z,101229.22
2022-10-20T17:59:15.849Z,101228.66
2022-10-20T18:01:44.600Z,101228.66
2022-10-20T18:04:17.000Z,101232.44
2022-10-20T18:06:45.961Z,101226.81
2022-10-20T18:09:19.411Z,101220.94
2022-10-20T18:11:52.593Z,101234.97
2022-10-20T18:14:22.513Z,101231.75
2022-10-20T18:16:50.842Z,101239.75
2022-10-20T18:19:21.149Z,101240.31
2022-10-20T18:21:51.403Z,101229.94
2022-10-20T18:24:20.653Z,101238.22
2022-10-20T18:26:49.519Z,101245.16
2022-10-20T18:29:17.914Z,101247.94
2022-10-20T18:31:47.253Z,101248.72
2022-10-20T18:34:23.291Z,101253.97
2022-10-20T18:36:55.147Z,101247.06
2022-10-20T18:39:24.114Z,101263.13
2022-10-20T18:41:54.900Z,101256.78
2022-10-20T18:44:24.182Z,101262.84
2022-10-20T18:46:57.973Z,101255.25
2022-10-20T18:49:26.154Z,101263.41
2022-10-20T18:51:53.939Z,101284.78
2022-10-20T18:54:24.011Z,101281.69
2022-10-20T18:56:53.842Z,101285.63
2022-10-20T18:59:23.127Z,101289.84
2022-10-20T19:01:52.370Z,101287.03
2022-10-20T19:04:20.514Z,101291.81
2022-10-20T19:06:49.162Z,101294.88
2022-10-20T19:09:20.434Z,101302.63
2022-10-20T19:14:20.342Z,101307.00
2022-10-20T19:16:50.626Z,101314.19
2022-10-20T19:19:20.284Z,101332.31
2022-10-20T19:21:48.673Z,101327.00
2022-10-20T19:24:24.176Z,101327.16
2022-10-20T19:27:24.492Z,101330.38
2022-10-20T19:29:45.965Z,101333.19
2022-10-20T19:32:13.597Z,101342.75
2022-10-20T19:34:42.431Z,101345.31
2022-10-20T19:37:11.110Z,101349.78
2022-10-20T19:39:42.124Z,101352.59
2022-10-20T19:42:12.220Z,101356.53
2022-10-20T19:44:41.404Z,101355.97
2022-10-20T19:47:13.097Z,101358.22
2022-10-20T19:49:43.510Z,101369.06
2022-10-20T19:52:13.478Z,101371.47
2022-10-20T19:54:41.453Z,101383.28
2022-10-20T19:57:09.671Z,101379.50
2022-10-20T19:59:38.684Z,101382.03
2022-10-20T20:02:07.980Z,101384.97
2022-10-20T20:04:37.407Z,101379.88
2022-10-20T20:07:06.723Z,101386.34
2022-10-20T20:09:35.065Z,101398.47
2022-10-20T20:12:06.552Z,101390.31
2022-10-20T20:14:39.388Z,101395.78
2022-10-20T20:17:11.220Z,101403.53
2022-10-20T20:19:42.169Z,101404.66
2022-10-20T20:22:11.517Z,101401.13
2022-10-20T20:24:40.205Z,101421.25
2022-10-20T20:27:08.182Z,101411.84
2022-10-20T20:29:36.994Z,101412.38
2022-10-20T20:32:06.022Z,101411.97
2022-10-20T20:34:35.297Z,101417.59
2022-10-20T20:37:03.763Z,101421.97
2022-10-20T20:39:31.963Z,101425.47
2022-10-20T20:42:00.424Z,101426.28
2022-10-20T20:44:28.667Z,101431.09
2022-10-20T20:46:56.293Z,101435.03
2022-10-20T20:49:24.290Z,101437.31
2022-10-20T20:51:51.942Z,101434.19
2022-10-20T20:54:19.988Z,101433.66
2022-10-20T20:56:48.159Z,101439.41
2022-10-20T20:59:16.942Z,101443.75
2022-10-20T21:01:45.481Z,101438.13
2022-10-20T21:04:13.375Z,101437.56
2022-10-20T21:07:01.219Z,101444.03
2022-10-20T21:09:30.928Z,101441.09
2022-10-20T21:11:59.126Z,101438.56
2022-10-20T21:14:27.117Z,101439.25
2022-10-20T21:16:54.790Z,101437.56
2022-10-20T21:19:22.527Z,101441.94
2022-10-20T21:21:57.404Z,101448.28
2022-10-20T21:24:26.802Z,101448.28
2022-10-20T21:26:55.043Z,101448.28
2022-10-20T21:29:22.800Z,101457.16
2022-10-20T21:31:50.476Z,101450.25
2022-10-20T21:34:18.693Z,101453.63
2022-10-20T21:36:46.443Z,101461.19
2022-10-20T21:39:18.208Z,101459.97
2022-10-20T21:41:46.226Z,101471.38
2022-10-20T21:44:15.219Z,101471.38
2022-10-20T21:46:47.806Z,101474.31
2022-10-20T21:49:19.084Z,101472.09
2022-10-20T21:51:49.085Z,101473.03
2022-10-20T21:56:53.058Z,101488.69
2022-10-20T21:59:27.093Z,101483.47
2022-10-20T22:01:57.248Z,101488.28
2022-10-20T22:04:28.462Z,101494.44
2022-10-20T22:06:56.577Z,101496.03
2022-10-20T22:09:26.408Z,101506.56
2022-10-20T22:11:55.572Z,101515.59
2022-10-20T22:14:23.863Z,101506.84
2022-10-20T22:16:52.018Z,101518.44
2022-10-20T22:19:23.178Z,101512.81
2022-10-20T22:21:52.900Z,101513.34
2022-10-20T22:24:21.562Z,101518.44
2022-10-20T22:26:51.720Z,101515.50
2022-10-20T22:29:23.703Z,101522.91
2022-10-20T22:31:51.317Z,101526.63
2022-10-20T22:34:19.172Z,101534.50
2022-10-20T22:36:47.097Z,101535.22
2022-10-20T22:39:14.689Z,101535.31
2022-10-20T22:41:42.783Z,101530.84
2022-10-20T22:44:11.176Z,101541.25
2022-10-20T22:46:38.619Z,101544.34
2022-10-20T22:49:06.212Z,101549.41
2022-10-20T22:51:33.858Z,101551.66
2022-10-20T22:54:01.264Z,101551.53
2022-10-20T22:56:29.365Z,101547.44
2022-10-20T22:58:57.041Z,101553.50
2022-10-20T23:01:25.956Z,101548.00
2022-10-20T23:03:53.658Z,101557.72
2022-10-20T23:06:24.444Z,101554.78
2022-10-20T23:08:56.109Z,101562.09
2022-10-20T23:11:24.082Z,101568.72
2022-10-20T23:13:52.256Z,101571.41
2022-10-20T23:16:19.980Z,101572.25
2022-10-20T23:18:48.159Z,101574.22
2022-10-20T23:21:16.401Z,101586.06
2022-10-20T23:23:46.238Z,101584.94
2022-10-20T23:26:14.557Z,101594.53
2022-10-20T23:28:43.001Z,101600.72
2022-10-20T23:31:17.291Z,101592.81
2022-10-20T23:33:48.621Z,101605.38
2022-10-20T23:36:16.606Z,101603.41
2022-10-20T23:38:46.519Z,101607.19
2022-10-20T23:41:14.596Z,101604.94
2022-10-20T23:43:42.440Z,101601.56
2022-10-20T23:46:10.233Z,101613.25
2022-10-20T23:48:38.214Z,101615.38
2022-10-20T23:51:07.177Z,101607.91
2022-10-20T23:53:35.345Z,101615.66
2022-10-20T23:56:04.191Z,101611.97
2022-10-20T23:58:32.992Z,101615.06
